sensor_id;sensor_type;location;lat;lon;timestamp;P1;durP1;ratioP1;P2;durP2;ratioP2
79468;SDS011;68936;52.526;13.326;2023-05-23T00:00:09;15.45;;;6.55;;
79468;SDS011;68936;52.526;13.326;2023-05-23T00:02:38;14.48;;;6.57;;
79468;SDS011;68936;52.526;13.326;2023-05-23T00:05:04;15.77;;;6.03;;
79468;SDS011;68936;52.526;13.326;2023-05-23T00:07:31;17.60;;;6.38;;
79468;SDS011;68936;52.526;13.326;2023-05-23T00:09:59;11.43;;;5.80;;
79468;SDS011;68936;52.526;13.326;2023-05-23T00:12:25;15.30;;;6.40;;
79468;SDS011;68936;52.526;13.326;2023-05-23T00:14:51;11.25;;;5.82;;
79468;SDS011;68936;52.526;13.326;2023-05-23T00:17:18;10.73;;;5.57;;
79468;SDS011;68936;52.526;13.326;2023-05-23T00:19:45;12.95;;;6.45;;
79468;SDS011;68936;52.526;13.326;2023-05-23T00:22:14;14.68;;;6.13;;
79468;SDS011;68936;52.526;13.326;2023-05-23T00:24:40;15.93;;;5.85;;
79468;SDS011;68936;52.526;13.326;2023-05-23T00:27:11;14.93;;;6.22;;
79468;SDS011;68936;52.526;13.326;2023-05-23T00:29:39;12.45;;;6.03;;
79468;SDS011;68936;52.526;13.326;2023-05-23T00:32:07;14.13;;;5.55;;
79468;SDS011;68936;52.526;13.326;2023-05-23T00:34:33;13.27;;;5.30;;
79468;SDS011;68936;52.526;13.326;2023-05-23T00:37:00;16.27;;;6.32;;
79468;SDS011;68936;52.526;13.326;2023-05-23T00:39:29;14.40;;;4.97;;
79468;SDS011;68936;52.526;13.326;2023-05-23T00:41:55;13.35;;;6.10;;
79468;SDS011;68936;52.526;13.326;2023-05-23T00:44:21;8.38;;;5.25;;
79468;SDS011;68936;52.526;13.326;2023-05-23T00:46:54;11.35;;;5.55;;
79468;SDS011;68936;52.526;13.326;2023-05-23T00:49:20;11.55;;;6.15;;
79468;SDS011;68936;52.526;13.326;2023-05-23T00:51:47;15.45;;;6.38;;
79468;SDS011;68936;52.526;13.326;2023-05-23T00:54:13;11.88;;;5.78;;
79468;SDS011;68936;52.526;13.326;2023-05-23T00:56:40;9.90;;;5.47;;
79468;SDS011;68936;52.526;13.326;2023-05-23T00:59:07;11.10;;;5.35;;
79468;SDS011;68936;52.526;13.326;2023-05-23T01:01:34;11.23;;;5.43;;
79468;SDS011;68936;52.526;13.326;2023-05-23T01:04:01;11.25;;;5.88;;
79468;SDS011;68936;52.526;13.326;2023-05-23T01:06:28;10.05;;;5.82;;
79468;SDS011;68936;52.526;13.326;2023-05-23T01:08:54;12.50;;;5.40;;
79468;SDS011;68936;52.526;13.326;2023-05-23T01:11:55;11.48;;;6.13;;
79468;SDS011;68936;52.526;13.326;2023-05-23T01:14:15;12.13;;;5.75;;
79468;SDS011;68936;52.526;13.326;2023-05-23T01:16:57;11.68;;;5.70;;
79468;SDS011;68936;52.526;13.326;2023-05-23T01:21:53;9.68;;;5.82;;
79468;SDS011;68936;52.526;13.326;2023-05-23T01:24:35;12.38;;;4.88;;
79468;SDS011;68936;52.526;13.326;2023-05-23T01:29:41;11.55;;;5.47;;
79468;SDS011;68936;52.526;13.326;2023-05-23T01:32:09;10.10;;;5.38;;
79468;SDS011;68936;52.526;13.326;2023-05-23T01:34:38;12.10;;;5.35;;
79468;SDS011;68936;52.526;13.326;2023-05-23T01:37:08;12.68;;;5.75;;
79468;SDS011;68936;52.526;13.326;2023-05-23T01:39:35;9.35;;;5.18;;
79468;SDS011;68936;52.526;13.326;2023-05-23T01:42:01;14.18;;;4.80;;
79468;SDS011;68936;52.526;13.326;2023-05-23T01:44:30;10.32;;;5.10;;
79468;SDS011;68936;52.526;13.326;2023-05-23T01:47:01;8.98;;;4.88;;
79468;SDS011;68936;52.526;13.326;2023-05-23T01:49:30;10.60;;;5.85;;
79468;SDS011;68936;52.526;13.326;2023-05-23T01:51:57;11.10;;;5.47;;
79468;SDS011;68936;52.526;13.326;2023-05-23T01:54:24;9.52;;;5.00;;
79468;SDS011;68936;52.526;13.326;2023-05-23T01:56:50;8.15;;;4.70;;
79468;SDS011;68936;52.526;13.326;2023-05-23T01:59:18;9.35;;;5.45;;
79468;SDS011;68936;52.526;13.326;2023-05-23T02:01:45;10.85;;;5.35;;
79468;SDS011;68936;52.526;13.326;2023-05-23T02:04:11;10.60;;;5.50;;
79468;SDS011;68936;52.526;13.326;2023-05-23T02:06:40;8.70;;;5.20;;
79468;SDS011;68936;52.526;13.326;2023-05-23T02:09:10;10.65;;;5.10;;
79468;SDS011;68936;52.526;13.326;2023-05-23T02:11:39;8.98;;;5.60;;
79468;SDS011;68936;52.526;13.326;2023-05-23T02:14:05;9.77;;;5.32;;
79468;SDS011;68936;52.526;13.326;2023-05-23T02:16:31;8.30;;;4.57;;
79468;SDS011;68936;52.526;13.326;2023-05-23T02:19:00;8.32;;;4.70;;
79468;SDS011;68936;52.526;13.326;2023-05-23T02:21:26;8.27;;;5.05;;
79468;SDS011;68936;52.526;13.326;2023-05-23T02:23:52;9.38;;;4.93;;
79468;SDS011;68936;52.526;13.326;2023-05-23T02:26:18;9.30;;;5.00;;
79468;SDS011;68936;52.526;13.326;2023-05-23T02:28:46;7.40;;;4.78;;
79468;SDS011;68936;52.526;13.326;2023-05-23T02:31:12;8.82;;;4.72;;
79468;SDS011;68936;52.526;13.326;2023-05-23T02:33:38;11.65;;;5.82;;
79468;SDS011;68936;52.526;13.326;2023-05-23T02:36:04;9.07;;;4.60;;
79468;SDS011;68936;52.526;13.326;2023-05-23T02:38:33;9.02;;;4.57;;
79468;SDS011;68936;52.526;13.326;2023-05-23T02:41:01;8.00;;;4.63;;
79468;SDS011;68936;52.526;13.326;2023-05-23T02:43:27;11.43;;;4.97;;
79468;SDS011;68936;52.526;13.326;2023-05-23T02:45:53;10.40;;;5.10;;
79468;SDS011;68936;52.526;13.326;2023-05-23T02:48:22;9.60;;;5.50;;
79468;SDS011;68936;52.526;13.326;2023-05-23T02:50:50;7.38;;;4.85;;
79468;SDS011;68936;52.526;13.326;2023-05-23T02:53:16;8.75;;;4.25;;
79468;SDS011;68936;52.526;13.326;2023-05-23T02:55:42;8.95;;;4.45;;
79468;SDS011;68936;52.526;13.326;2023-05-23T02:58:08;8.45;;;4.32;;
79468;SDS011;68936;52.526;13.326;2023-05-23T03:00:34;9.57;;;5.00;;
79468;SDS011;68936;52.526;13.326;2023-05-23T03:03:03;8.05;;;4.85;;
79468;SDS011;68936;52.526;13.326;2023-05-23T03:05:32;7.28;;;4.30;;
79468;SDS011;68936;52.526;13.326;2023-05-23T03:07:58;10.02;;;4.80;;
79468;SDS011;68936;52.526;13.326;2023-05-23T03:10:24;9.77;;;4.82;;
79468;SDS011;68936;52.526;13.326;2023-05-23T03:12:50;7.68;;;4.50;;
79468;SDS011;68936;52.526;13.326;2023-05-23T03:15:16;8.35;;;5.07;;
79468;SDS011;68936;52.526;13.326;2023-05-23T03:17:42;8.30;;;4.38;;
79468;SDS011;68936;52.526;13.326;2023-05-23T03:20:08;12.52;;;5.22;;
79468;SDS011;68936;52.526;13.326;2023-05-23T03:22:35;7.72;;;4.80;;
79468;SDS011;68936;52.526;13.326;2023-05-23T03:25:04;8.52;;;5.28;;
79468;SDS011;68936;52.526;13.326;2023-05-23T03:27:30;8.15;;;4.50;;
79468;SDS011;68936;52.526;13.326;2023-05-23T03:29:56;6.40;;;3.70;;
79468;SDS011;68936;52.526;13.326;2023-05-23T03:32:24;11.40;;;4.72;;
79468;SDS011;68936;52.526;13.326;2023-05-23T03:34:51;7.78;;;4.60;;
79468;SDS011;68936;52.526;13.326;2023-05-23T03:37:17;8.50;;;4.65;;
79468;SDS011;68936;52.526;13.326;2023-05-23T03:39:43;8.85;;;4.07;;
79468;SDS011;68936;52.526;13.326;2023-05-23T03:42:09;7.50;;;4.70;;
79468;SDS011;68936;52.526;13.326;2023-05-23T03:44:35;8.10;;;4.93;;
79468;SDS011;68936;52.526;13.326;2023-05-23T03:47:01;8.05;;;4.70;;
79468;SDS011;68936;52.526;13.326;2023-05-23T03:49:27;7.68;;;4.93;;
79468;SDS011;68936;52.526;13.326;2023-05-23T03:51:53;8.60;;;4.78;;
79468;SDS011;68936;52.526;13.326;2023-05-23T03:54:19;7.78;;;4.30;;
79468;SDS011;68936;52.526;13.326;2023-05-23T03:56:45;7.32;;;4.35;;
79468;SDS011;68936;52.526;13.326;2023-05-23T03:59:11;5.63;;;4.00;;
79468;SDS011;68936;52.526;13.326;2023-05-23T04:01:37;8.30;;;4.50;;
79468;SDS011;68936;52.526;13.326;2023-05-23T04:04:03;7.80;;;4.55;;
79468;SDS011;68936;52.526;13.326;2023-05-23T04:06:29;7.32;;;4.43;;
79468;SDS011;68936;52.526;13.326;2023-05-23T04:08:56;8.13;;;4.55;;
79468;SDS011;68936;52.526;13.326;2023-05-23T04:11:22;6.40;;;4.40;;
79468;SDS011;68936;52.526;13.326;2023-05-23T04:13:48;6.53;;;4.38;;
79468;SDS011;68936;52.526;13.326;2023-05-23T04:16:19;5.85;;;3.97;;
79468;SDS011;68936;52.526;13.326;2023-05-23T04:18:48;7.60;;;4.72;;
79468;SDS011;68936;52.526;13.326;2023-05-23T04:21:14;8.10;;;4.30;;
79468;SDS011;68936;52.526;13.326;2023-05-23T04:23:40;6.72;;;4.22;;
79468;SDS011;68936;52.526;13.326;2023-05-23T04:26:06;8.68;;;4.32;;
79468;SDS011;68936;52.526;13.326;2023-05-23T04:28:35;7.75;;;4.53;;
79468;SDS011;68936;52.526;13.326;2023-05-23T04:31:01;7.53;;;4.00;;
79468;SDS011;68936;52.526;13.326;2023-05-23T04:33:28;7.43;;;4.45;;
79468;SDS011;68936;52.526;13.326;2023-05-23T04:35:54;6.53;;;4.25;;
79468;SDS011;68936;52.526;13.326;2023-05-23T04:38:21;6.90;;;4.47;;
79468;SDS011;68936;52.526;13.326;2023-05-23T04:40:49;7.07;;;3.67;;
79468;SDS011;68936;52.526;13.326;2023-05-23T04:43:18;6.80;;;4.32;;
79468;SDS011;68936;52.526;13.326;2023-05-23T04:45:47;6.07;;;3.90;;
79468;SDS011;68936;52.526;13.326;2023-05-23T04:48:18;6.93;;;4.45;;
79468;SDS011;68936;52.526;13.326;2023-05-23T04:50:46;6.07;;;3.95;;
79468;SDS011;68936;52.526;13.326;2023-05-23T04:53:18;7.05;;;4.07;;
79468;SDS011;68936;52.526;13.326;2023-05-23T04:55:44;6.75;;;4.22;;
79468;SDS011;68936;52.526;13.326;2023-05-23T04:58:12;6.80;;;4.00;;
79468;SDS011;68936;52.526;13.326;2023-05-23T05:00:39;6.38;;;4.05;;
79468;SDS011;68936;52.526;13.326;2023-05-23T05:03:05;6.05;;;4.13;;
79468;SDS011;68936;52.526;13.326;2023-05-23T05:05:33;7.85;;;4.63;;
79468;SDS011;68936;52.526;13.326;2023-05-23T05:07:59;6.68;;;4.18;;
79468;SDS011;68936;52.526;13.326;2023-05-23T05:10:25;6.20;;;4.03;;
79468;SDS011;68936;52.526;13.326;2023-05-23T05:12:51;7.68;;;3.90;;
79468;SDS011;68936;52.526;13.326;2023-05-23T05:15:17;8.65;;;4.53;;
79468;SDS011;68936;52.526;13.326;2023-05-23T05:17:44;7.40;;;3.92;;
79468;SDS011;68936;52.526;13.326;2023-05-23T05:20:12;6.50;;;3.75;;
79468;SDS011;68936;52.526;13.326;2023-05-23T05:22:39;6.20;;;4.18;;
79468;SDS011;68936;52.526;13.326;2023-05-23T05:25:07;8.57;;;4.03;;
79468;SDS011;68936;52.526;13.326;2023-05-23T05:27:33;6.50;;;4.15;;
79468;SDS011;68936;52.526;13.326;2023-05-23T05:30:05;6.15;;;4.55;;
79468;SDS011;68936;52.526;13.326;2023-05-23T05:32:34;9.10;;;4.25;;
79468;SDS011;68936;52.526;13.326;2023-05-23T05:35:00;6.82;;;4.13;;
79468;SDS011;68936;52.526;13.326;2023-05-23T05:37:27;8.93;;;4.00;;
79468;SDS011;68936;52.526;13.326;2023-05-23T05:39:53;10.48;;;4.78;;
79468;SDS011;68936;52.526;13.326;2023-05-23T05:42:19;6.93;;;3.70;;
79468;SDS011;68936;52.526;13.326;2023-05-23T05:44:46;9.98;;;4.28;;
79468;SDS011;68936;52.526;13.326;2023-05-23T05:47:14;10.50;;;4.63;;
79468;SDS011;68936;52.526;13.326;2023-05-23T05:49:40;34.72;;;3.95;;
79468;SDS011;68936;52.526;13.326;2023-05-23T05:52:10;6.25;;;4.18;;
79468;SDS011;68936;52.526;13.326;2023-05-23T05:54:36;5.75;;;3.47;;
79468;SDS011;68936;52.526;13.326;2023-05-23T05:57:06;8.93;;;4.13;;
79468;SDS011;68936;52.526;13.326;2023-05-23T05:59:32;11.20;;;3.97;;
79468;SDS011;68936;52.526;13.326;2023-05-23T06:01:58;8.10;;;4.55;;
79468;SDS011;68936;52.526;13.326;2023-05-23T06:04:25;5.78;;;4.00;;
79468;SDS011;68936;52.526;13.326;2023-05-23T06:06:51;10.90;;;3.70;;
79468;SDS011;68936;52.526;13.326;2023-05-23T06:09:17;8.10;;;4.10;;
79468;SDS011;68936;52.526;13.326;2023-05-23T06:11:43;9.02;;;3.80;;
79468;SDS011;68936;52.526;13.326;2023-05-23T06:14:12;5.53;;;4.03;;
79468;SDS011;68936;52.526;13.326;2023-05-23T06:16:38;7.15;;;4.25;;
79468;SDS011;68936;52.526;13.326;2023-05-23T06:19:04;13.75;;;5.03;;
79468;SDS011;68936;52.526;13.326;2023-05-23T06:21:30;16.02;;;4.72;;
79468;SDS011;68936;52.526;13.326;2023-05-23T06:23:56;9.93;;;4.47;;
79468;SDS011;68936;52.526;13.326;2023-05-23T06:26:22;13.73;;;4.82;;
79468;SDS011;68936;52.526;13.326;2023-05-23T06:28:48;13.15;;;4.35;;
79468;SDS011;68936;52.526;13.326;2023-05-23T06:31:14;15.30;;;4.65;;
79468;SDS011;68936;52.526;13.326;2023-05-23T06:33:40;9.57;;;4.18;;
79468;SDS011;68936;52.526;13.326;2023-05-23T06:36:08;18.00;;;4.25;;
79468;SDS011;68936;52.526;13.326;2023-05-23T06:38:37;14.38;;;4.38;;
79468;SDS011;68936;52.526;13.326;2023-05-23T06:41:03;13.70;;;4.47;;
79468;SDS011;68936;52.526;13.326;2023-05-23T06:43:31;11.85;;;4.28;;
79468;SDS011;68936;52.526;13.326;2023-05-23T06:45:57;7.63;;;4.03;;
79468;SDS011;68936;52.526;13.326;2023-05-23T06:48:23;11.68;;;4.85;;
79468;SDS011;68936;52.526;13.326;2023-05-23T06:50:49;7.18;;;3.65;;
79468;SDS011;68936;52.526;13.326;2023-05-23T06:53:15;10.18;;;4.10;;
79468;SDS011;68936;52.526;13.326;2023-05-23T06:55:42;9.95;;;3.70;;
79468;SDS011;68936;52.526;13.326;2023-05-23T06:58:08;7.97;;;4.90;;
79468;SDS011;68936;52.526;13.326;2023-05-23T07:00:34;9.80;;;3.92;;
79468;SDS011;68936;52.526;13.326;2023-05-23T07:03:01;8.77;;;3.78;;
79468;SDS011;68936;52.526;13.326;2023-05-23T07:05:27;8.25;;;4.25;;
79468;SDS011;68936;52.526;13.326;2023-05-23T07:07:53;10.95;;;4.43;;
79468;SDS011;68936;52.526;13.326;2023-05-23T07:10:20;11.15;;;3.70;;
79468;SDS011;68936;52.526;13.326;2023-05-23T07:12:46;8.95;;;4.32;;
79468;SDS011;68936;52.526;13.326;2023-05-23T07:15:12;8.93;;;3.97;;
79468;SDS011;68936;52.526;13.326;2023-05-23T07:17:39;8.77;;;3.83;;
79468;SDS011;68936;52.526;13.326;2023-05-23T07:20:05;9.52;;;3.83;;
79468;SDS011;68936;52.526;13.326;2023-05-23T07:22:32;10.00;;;4.85;;
79468;SDS011;68936;52.526;13.326;2023-05-23T07:24:58;8.88;;;4.03;;
79468;SDS011;68936;52.526;13.326;2023-05-23T07:27:27;6.28;;;3.60;;
79468;SDS011;68936;52.526;13.326;2023-05-23T07:29:53;6.95;;;3.70;;
79468;SDS011;68936;52.526;13.326;2023-05-23T07:32:21;12.90;;;4.18;;
79468;SDS011;68936;52.526;13.326;2023-05-23T07:34:47;7.05;;;3.80;;
79468;SDS011;68936;52.526;13.326;2023-05-23T07:37:13;8.30;;;4.10;;
79468;SDS011;68936;52.526;13.326;2023-05-23T07:39:40;13.60;;;4.15;;
79468;SDS011;68936;52.526;13.326;2023-05-23T07:42:06;7.75;;;4.05;;
79468;SDS011;68936;52.526;13.326;2023-05-23T07:44:32;8.52;;;3.55;;
79468;SDS011;68936;52.526;13.326;2023-05-23T07:46:58;7.22;;;4.13;;
79468;SDS011;68936;52.526;13.326;2023-05-23T07:49:26;6.85;;;3.92;;
79468;SDS011;68936;52.526;13.326;2023-05-23T07:51:52;8.90;;;3.90;;
79468;SDS011;68936;52.526;13.326;2023-05-23T07:54:18;9.70;;;3.83;;
79468;SDS011;68936;52.526;13.326;2023-05-23T07:56:44;6.30;;;3.88;;
79468;SDS011;68936;52.526;13.326;2023-05-23T07:59:11;8.63;;;3.97;;
79468;SDS011;68936;52.526;13.326;2023-05-23T08:01:37;5.20;;;3.70;;
79468;SDS011;68936;52.526;13.326;2023-05-23T08:04:06;9.60;;;3.80;;
79468;SDS011;68936;52.526;13.326;2023-05-23T08:06:32;6.75;;;4.28;;
79468;SDS011;68936;52.526;13.326;2023-05-23T08:08:58;5.78;;;3.72;;
79468;SDS011;68936;52.526;13.326;2023-05-23T08:11:24;6.65;;;3.88;;
79468;SDS011;68936;52.526;13.326;2023-05-23T08:13:54;11.45;;;4.18;;
79468;SDS011;68936;52.526;13.326;2023-05-23T08:16:22;7.78;;;4.20;;
79468;SDS011;68936;52.526;13.326;2023-05-23T08:18:48;10.50;;;4.20;;
79468;SDS011;68936;52.526;13.326;2023-05-23T08:21:14;7.35;;;4.40;;
79468;SDS011;68936;52.526;13.326;2023-05-23T08:23:43;7.68;;;4.00;;
79468;SDS011;68936;52.526;13.326;2023-05-23T08:26:09;6.63;;;3.85;;
79468;SDS011;68936;52.526;13.326;2023-05-23T08:28:37;9.45;;;4.05;;
79468;SDS011;68936;52.526;13.326;2023-05-23T08:31:06;8.07;;;3.80;;
79468;SDS011;68936;52.526;13.326;2023-05-23T08:33:34;7.60;;;4.13;;
79468;SDS011;68936;52.526;13.326;2023-05-23T08:36:00;5.93;;;4.20;;
79468;SDS011;68936;52.526;13.326;2023-05-23T08:38:26;6.95;;;3.30;;
79468;SDS011;68936;52.526;13.326;2023-05-23T08:40:52;5.63;;;3.85;;
79468;SDS011;68936;52.526;13.326;2023-05-23T08:43:20;6.60;;;3.90;;
79468;SDS011;68936;52.526;13.326;2023-05-23T08:45:46;5.10;;;3.88;;
79468;SDS011;68936;52.526;13.326;2023-05-23T08:48:13;4.82;;;3.50;;
79468;SDS011;68936;52.526;13.326;2023-05-23T08:50:42;6.93;;;3.78;;
79468;SDS011;68936;52.526;13.326;2023-05-23T08:53:10;5.68;;;3.63;;
79468;SDS011;68936;52.526;13.326;2023-05-23T08:55:43;7.57;;;3.92;;
79468;SDS011;68936;52.526;13.326;2023-05-23T08:58:10;5.60;;;3.90;;
79468;SDS011;68936;52.526;13.326;2023-05-23T09:00:38;5.05;;;3.70;;
79468;SDS011;68936;52.526;13.326;2023-05-23T09:03:08;7.35;;;3.97;;
79468;SDS011;68936;52.526;13.326;2023-05-23T09:08:04;6.93;;;3.42;;
79468;SDS011;68936;52.526;13.326;2023-05-23T09:10:33;5.38;;;3.75;;
79468;SDS011;68936;52.526;13.326;2023-05-23T09:13:04;6.47;;;3.80;;
79468;SDS011;68936;52.526;13.326;2023-05-23T09:15:30;5.78;;;3.78;;
79468;SDS011;68936;52.526;13.326;2023-05-23T09:17:59;5.75;;;3.47;;
79468;SDS011;68936;52.526;13.326;2023-05-23T09:20:26;5.30;;;3.83;;
79468;SDS011;68936;52.526;13.326;2023-05-23T09:22:53;10.02;;;4.15;;
79468;SDS011;68936;52.526;13.326;2023-05-23T09:25:22;7.53;;;3.95;;
79468;SDS011;68936;52.526;13.326;2023-05-23T09:27:48;5.50;;;3.72;;
79468;SDS011;68936;52.526;13.326;2023-05-23T09:30:14;7.82;;;3.92;;
79468;SDS011;68936;52.526;13.326;2023-05-23T09:32:40;5.95;;;3.40;;
79468;SDS011;68936;52.526;13.326;2023-05-23T09:35:06;7.65;;;4.07;;
79468;SDS011;68936;52.526;13.326;2023-05-23T09:40:09;6.15;;;4.20;;
79468;SDS011;68936;52.526;13.326;2023-05-23T09:42:41;5.68;;;3.65;;
79468;SDS011;68936;52.526;13.326;2023-05-23T09:45:08;5.68;;;4.13;;
79468;SDS011;68936;52.526;13.326;2023-05-23T09:47:34;6.97;;;4.20;;
79468;SDS011;68936;52.526;13.326;2023-05-23T09:50:04;5.68;;;3.60;;
79468;SDS011;68936;52.526;13.326;2023-05-23T09:52:35;4.97;;;3.90;;
79468;SDS011;68936;52.526;13.326;2023-05-23T09:55:02;4.85;;;3.45;;
79468;SDS011;68936;52.526;13.326;2023-05-23T09:57:28;5.07;;;3.17;;
79468;SDS011;68936;52.526;13.326;2023-05-23T09:59:54;6.22;;;3.60;;
79468;SDS011;68936;52.526;13.326;2023-05-23T10:02:53;5.55;;;3.92;;
79468;SDS011;68936;52.526;13.326;2023-05-23T10:06:00;5.93;;;3.63;;
79468;SDS011;68936;52.526;13.326;2023-05-23T10:08:11;5.00;;;3.83;;
79468;SDS011;68936;52.526;13.326;2023-05-23T10:11:00;5.10;;;3.58;;
79468;SDS011;68936;52.526;13.326;2023-05-23T10:13:24;4.53;;;3.47;;
79468;SDS011;68936;52.526;13.326;2023-05-23T10:15:51;8.45;;;3.97;;
79468;SDS011;68936;52.526;13.326;2023-05-23T10:18:23;4.50;;;3.60;;
79468;SDS011;68936;52.526;13.326;2023-05-23T10:20:51;7.55;;;4.20;;
79468;SDS011;68936;52.526;13.326;2023-05-23T10:23:18;5.18;;;3.92;;
79468;SDS011;68936;52.526;13.326;2023-05-23T10:25:45;6.10;;;3.63;;
79468;SDS011;68936;52.526;13.326;2023-05-23T10:28:13;5.47;;;4.03;;
79468;SDS011;68936;52.526;13.326;2023-05-23T10:30:42;5.88;;;4.18;;
79468;SDS011;68936;52.526;13.326;2023-05-23T10:33:11;5.28;;;3.75;;
79468;SDS011;68936;52.526;13.326;2023-05-23T10:36:24;5.93;;;4.03;;
79468;SDS011;68936;52.526;13.326;2023-05-23T10:43:31;52.15;;;15.57;;
79468;SDS011;68936;52.526;13.326;2023-05-23T10:46:01;95.43;;;21.77;;
79468;SDS011;68936;52.526;13.326;2023-05-23T10:51:06;39.67;;;13.20;;
79468;SDS011;68936;52.526;13.326;2023-05-23T10:53:36;28.77;;;10.82;;
79468;SDS011;68936;52.526;13.326;2023-05-23T10:56:06;26.05;;;9.88;;
79468;SDS011;68936;52.526;13.326;2023-05-23T10:58:36;24.67;;;9.07;;
79468;SDS011;68936;52.526;13.326;2023-05-23T11:01:07;22.02;;;9.93;;
79468;SDS011;68936;52.526;13.326;2023-05-23T11:06:02;19.80;;;10.02;;
79468;SDS011;68936;52.526;13.326;2023-05-23T11:08:35;22.58;;;10.10;;
79468;SDS011;68936;52.526;13.326;2023-05-23T11:11:02;18.77;;;10.43;;
79468;SDS011;68936;52.526;13.326;2023-05-23T11:16:26;17.90;;;10.45;;
79468;SDS011;68936;52.526;13.326;2023-05-23T11:19:09;18.75;;;9.98;;
79468;SDS011;68936;52.526;13.326;2023-05-23T11:21:38;27.55;;;11.38;;
79468;SDS011;68936;52.526;13.326;2023-05-23T11:24:05;17.38;;;9.68;;
79468;SDS011;68936;52.526;13.326;2023-05-23T11:26:34;16.02;;;10.57;;
79468;SDS011;68936;52.526;13.326;2023-05-23T11:29:00;18.70;;;11.00;;
79468;SDS011;68936;52.526;13.326;2023-05-23T11:31:28;16.42;;;10.23;;
79468;SDS011;68936;52.526;13.326;2023-05-23T11:33:54;19.48;;;11.23;;
79468;SDS011;68936;52.526;13.326;2023-05-23T11:36:20;19.05;;;10.75;;
79468;SDS011;68936;52.526;13.326;2023-05-23T11:38:48;41.47;;;12.43;;
79468;SDS011;68936;52.526;13.326;2023-05-23T11:41:14;15.32;;;10.35;;
79468;SDS011;68936;52.526;13.326;2023-05-23T11:43:50;17.30;;;9.57;;
79468;SDS011;68936;52.526;13.326;2023-05-23T11:46:16;15.23;;;10.30;;
79468;SDS011;68936;52.526;13.326;2023-05-23T11:48:46;21.10;;;11.45;;
79468;SDS011;68936;52.526;13.326;2023-05-23T11:51:12;13.60;;;11.43;;
79468;SDS011;68936;52.526;13.326;2023-05-23T11:53:38;15.23;;;10.65;;
79468;SDS011;68936;52.526;13.326;2023-05-23T11:56:04;15.48;;;10.50;;
79468;SDS011;68936;52.526;13.326;2023-05-23T12:01:05;17.75;;;11.27;;
79468;SDS011;68936;52.526;13.326;2023-05-23T12:03:43;17.58;;;10.93;;
79468;SDS011;68936;52.526;13.326;2023-05-23T12:06:10;15.10;;;10.43;;
79468;SDS011;68936;52.526;13.326;2023-05-23T12:08:39;17.98;;;10.50;;
79468;SDS011;68936;52.526;13.326;2023-05-23T12:11:08;16.35;;;10.85;;
79468;SDS011;68936;52.526;13.326;2023-05-23T12:13:34;15.55;;;11.07;;
79468;SDS011;68936;52.526;13.326;2023-05-23T12:16:00;17.60;;;10.65;;
79468;SDS011;68936;52.526;13.326;2023-05-23T12:18:30;15.55;;;10.57;;
79468;SDS011;68936;52.526;13.326;2023-05-23T12:20:59;15.02;;;10.20;;
79468;SDS011;68936;52.526;13.326;2023-05-23T12:23:27;15.73;;;10.60;;
79468;SDS011;68936;52.526;13.326;2023-05-23T12:25:53;15.95;;;10.65;;
79468;SDS011;68936;52.526;13.326;2023-05-23T12:28:41;14.65;;;10.75;;
79468;SDS011;68936;52.526;13.326;2023-05-23T12:31:12;16.90;;;11.07;;
79468;SDS011;68936;52.526;13.326;2023-05-23T12:33:39;16.23;;;11.45;;
79468;SDS011;68936;52.526;13.326;2023-05-23T12:36:07;13.82;;;9.48;;
79468;SDS011;68936;52.526;13.326;2023-05-23T12:38:33;16.33;;;10.25;;
79468;SDS011;68936;52.526;13.326;2023-05-23T12:41:17;15.05;;;10.40;;
79468;SDS011;68936;52.526;13.326;2023-05-23T12:43:52;12.70;;;8.95;;
79468;SDS011;68936;52.526;13.326;2023-05-23T12:46:22;12.25;;;9.13;;
79468;SDS011;68936;52.526;13.326;2023-05-23T12:48:51;12.55;;;9.15;;
79468;SDS011;68936;52.526;13.326;2023-05-23T12:51:17;10.18;;;8.35;;
79468;SDS011;68936;52.526;13.326;2023-05-23T12:53:43;10.70;;;8.40;;
79468;SDS011;68936;52.526;13.326;2023-05-23T12:56:09;12.65;;;8.68;;
79468;SDS011;68936;52.526;13.326;2023-05-23T12:58:36;11.10;;;8.45;;
79468;SDS011;68936;52.526;13.326;2023-05-23T13:01:02;11.43;;;8.20;;
79468;SDS011;68936;52.526;13.326;2023-05-23T13:03:28;11.23;;;8.10;;
79468;SDS011;68936;52.526;13.326;2023-05-23T13:06:01;9.90;;;8.40;;
79468;SDS011;68936;52.526;13.326;2023-05-23T13:08:27;13.07;;;9.30;;
79468;SDS011;68936;52.526;13.326;2023-05-23T13:10:53;14.20;;;9.27;;
79468;SDS011;68936;52.526;13.326;2023-05-23T13:13:19;15.52;;;10.88;;
79468;SDS011;68936;52.526;13.326;2023-05-23T13:15:46;13.27;;;9.88;;
79468;SDS011;68936;52.526;13.326;2023-05-23T13:18:15;14.02;;;9.88;;
79468;SDS011;68936;52.526;13.326;2023-05-23T13:20:41;14.55;;;9.05;;
79468;SDS011;68936;52.526;13.326;2023-05-23T13:23:07;13.80;;;9.75;;
79468;SDS011;68936;52.526;13.326;2023-05-23T13:25:33;12.70;;;9.90;;
79468;SDS011;68936;52.526;13.326;2023-05-23T13:27:59;16.25;;;10.93;;
79468;SDS011;68936;52.526;13.326;2023-05-23T13:30:26;14.25;;;9.93;;
79468;SDS011;68936;52.526;13.326;2023-05-23T13:32:54;16.25;;;10.52;;
79468;SDS011;68936;52.526;13.326;2023-05-23T13:35:20;13.70;;;10.25;;
79468;SDS011;68936;52.526;13.326;2023-05-23T13:37:51;13.80;;;9.20;;
79468;SDS011;68936;52.526;13.326;2023-05-23T13:40:17;16.13;;;10.80;;
79468;SDS011;68936;52.526;13.326;2023-05-23T13:42:44;13.77;;;10.35;;
79468;SDS011;68936;52.526;13.326;2023-05-23T13:45:10;16.35;;;10.20;;
79468;SDS011;68936;52.526;13.326;2023-05-23T13:47:36;16.92;;;9.20;;
79468;SDS011;68936;52.526;13.326;2023-05-23T13:50:03;13.57;;;8.90;;
79468;SDS011;68936;52.526;13.326;2023-05-23T13:52:29;14.30;;;9.68;;
79468;SDS011;68936;52.526;13.326;2023-05-23T13:54:55;12.80;;;8.43;;
79468;SDS011;68936;52.526;13.326;2023-05-23T13:57:23;16.10;;;11.10;;
79468;SDS011;68936;52.526;13.326;2023-05-23T13:59:50;14.55;;;9.15;;
79468;SDS011;68936;52.526;13.326;2023-05-23T14:02:18;12.05;;;7.85;;
79468;SDS011;68936;52.526;13.326;2023-05-23T14:04:45;17.95;;;7.97;;
79468;SDS011;68936;52.526;13.326;2023-05-23T14:07:13;10.18;;;7.22;;
79468;SDS011;68936;52.526;13.326;2023-05-23T14:09:39;11.10;;;7.15;;
79468;SDS011;68936;52.526;13.326;2023-05-23T14:12:05;9.93;;;6.90;;
79468;SDS011;68936;52.526;13.326;2023-05-23T14:14:31;10.02;;;7.05;;
79468;SDS011;68936;52.526;13.326;2023-05-23T14:16:57;10.10;;;7.50;;
79468;SDS011;68936;52.526;13.326;2023-05-23T14:19:26;10.95;;;6.97;;
79468;SDS011;68936;52.526;13.326;2023-05-23T14:21:52;11.45;;;8.00;;
79468;SDS011;68936;52.526;13.326;2023-05-23T14:24:21;8.35;;;6.68;;
79468;SDS011;68936;52.526;13.326;2023-05-23T14:26:47;10.60;;;7.00;;
79468;SDS011;68936;52.526;13.326;2023-05-23T14:29:14;11.20;;;6.50;;
79468;SDS011;68936;52.526;13.326;2023-05-23T14:31:40;9.35;;;6.53;;
79468;SDS011;68936;52.526;13.326;2023-05-23T14:34:08;9.13;;;6.95;;
79468;SDS011;68936;52.526;13.326;2023-05-23T14:36:35;11.25;;;8.13;;
79468;SDS011;68936;52.526;13.326;2023-05-23T14:39:01;9.07;;;6.90;;
79468;SDS011;68936;52.526;13.326;2023-05-23T14:41:29;10.43;;;6.93;;
79468;SDS011;68936;52.526;13.326;2023-05-23T14:43:55;8.75;;;6.60;;
79468;SDS011;68936;52.526;13.326;2023-05-23T14:46:21;8.93;;;6.80;;
79468;SDS011;68936;52.526;13.326;2023-05-23T14:48:50;10.77;;;7.40;;
79468;SDS011;68936;52.526;13.326;2023-05-23T14:51:18;10.55;;;6.60;;
79468;SDS011;68936;52.526;13.326;2023-05-23T14:53:44;7.80;;;6.50;;